sensor_id;sensor_type;location;lat;lon;timestamp;P1;durP1;ratioP1;P2;durP2;ratioP2
21356;SDS011;10836;53.068;18.234;2022-12-29T00:01:41;19.53;;;9.63;;
21356;SDS011;10836;53.068;18.234;2022-12-29T00:04:09;18.10;;;9.97;;
21356;SDS011;10836;53.068;18.234;2022-12-29T00:06:41;18.57;;;10.33;;
21356;SDS011;10836;53.068;18.234;2022-12-29T00:09:12;20.47;;;11.00;;
21356;SDS011;10836;53.068;18.234;2022-12-29T00:11:40;20.40;;;11.50;;
21356;SDS011;10836;53.068;18.234;2022-12-29T00:14:08;21.50;;;11.60;;
21356;SDS011;10836;53.068;18.234;2022-12-29T00:16:55;21.10;;;11.60;;
21356;SDS011;10836;53.068;18.234;2022-12-29T00:19:22;21.13;;;12.27;;
21356;SDS011;10836;53.068;18.234;2022-12-29T00:22:11;22.47;;;12.43;;
21356;SDS011;10836;53.068;18.234;2022-12-29T00:24:58;22.00;;;11.37;;
21356;SDS011;10836;53.068;18.234;2022-12-29T00:27:32;18.37;;;11.13;;
21356;SDS011;10836;53.068;18.234;2022-12-29T00:30:19;20.10;;;11.50;;
21356;SDS011;10836;53.068;18.234;2022-12-29T00:33:12;19.50;;;11.03;;
21356;SDS011;10836;53.068;18.234;2022-12-29T00:36:21;17.03;;;10.80;;
21356;SDS011;10836;53.068;18.234;2022-12-29T00:39:16;22.63;;;12.30;;
21356;SDS011;10836;53.068;18.234;2022-12-29T00:42:08;25.10;;;12.13;;
21356;SDS011;10836;53.068;18.234;2022-12-29T00:44:54;21.07;;;11.03;;
21356;SDS011;10836;53.068;18.234;2022-12-29T00:47:21;22.13;;;11.73;;
21356;SDS011;10836;53.068;18.234;2022-12-29T00:49:48;18.30;;;11.10;;
21356;SDS011;10836;53.068;18.234;2022-12-29T00:52:16;21.97;;;11.97;;
21356;SDS011;10836;53.068;18.234;2022-12-29T00:54:44;21.40;;;12.10;;
21356;SDS011;10836;53.068;18.234;2022-12-29T00:57:11;19.63;;;11.47;;
21356;SDS011;10836;53.068;18.234;2022-12-29T00:59:39;21.13;;;12.37;;
21356;SDS011;10836;53.068;18.234;2022-12-29T01:02:07;20.67;;;12.07;;
21356;SDS011;10836;53.068;18.234;2022-12-29T01:04:35;20.17;;;11.90;;
21356;SDS011;10836;53.068;18.234;2022-12-29T01:07:03;23.53;;;12.40;;
21356;SDS011;10836;53.068;18.234;2022-12-29T01:09:30;22.40;;;12.03;;
21356;SDS011;10836;53.068;18.234;2022-12-29T01:12:16;25.83;;;12.00;;
21356;SDS011;10836;53.068;18.234;2022-12-29T01:15:03;25.83;;;13.10;;
21356;SDS011;10836;53.068;18.234;2022-12-29T01:17:31;23.87;;;11.77;;
21356;SDS011;10836;53.068;18.234;2022-12-29T01:19:57;23.47;;;12.23;;
21356;SDS011;10836;53.068;18.234;2022-12-29T01:22:25;20.93;;;12.47;;
21356;SDS011;10836;53.068;18.234;2022-12-29T01:24:51;19.17;;;11.43;;
21356;SDS011;10836;53.068;18.234;2022-12-29T01:27:18;22.00;;;12.10;;
21356;SDS011;10836;53.068;18.234;2022-12-29T01:29:45;21.83;;;11.53;;
21356;SDS011;10836;53.068;18.234;2022-12-29T01:32:12;19.40;;;11.03;;
21356;SDS011;10836;53.068;18.234;2022-12-29T01:34:39;18.70;;;9.97;;
21356;SDS011;10836;53.068;18.234;2022-12-29T01:37:06;25.10;;;10.73;;
21356;SDS011;10836;53.068;18.234;2022-12-29T01:39:33;19.13;;;10.60;;
21356;SDS011;10836;53.068;18.234;2022-12-29T01:42:00;19.77;;;11.07;;
21356;SDS011;10836;53.068;18.234;2022-12-29T01:47:21;21.27;;;11.33;;
21356;SDS011;10836;53.068;18.234;2022-12-29T01:49:55;19.17;;;10.60;;
21356;SDS011;10836;53.068;18.234;2022-12-29T01:52:24;23.63;;;11.67;;
21356;SDS011;10836;53.068;18.234;2022-12-29T01:54:56;19.73;;;10.10;;
21356;SDS011;10836;53.068;18.234;2022-12-29T01:57:34;19.83;;;11.10;;
21356;SDS011;10836;53.068;18.234;2022-12-29T02:00:06;19.60;;;10.83;;
21356;SDS011;10836;53.068;18.234;2022-12-29T02:02:42;20.00;;;9.27;;
21356;SDS011;10836;53.068;18.234;2022-12-29T02:05:19;21.93;;;9.77;;
21356;SDS011;10836;53.068;18.234;2022-12-29T02:08:03;17.40;;;10.87;;
21356;SDS011;10836;53.068;18.234;2022-12-29T02:10:33;18.23;;;10.30;;
21356;SDS011;10836;53.068;18.234;2022-12-29T02:13:01;16.40;;;10.57;;
21356;SDS011;10836;53.068;18.234;2022-12-29T02:15:34;19.50;;;9.70;;
21356;SDS011;10836;53.068;18.234;2022-12-29T02:20:59;17.70;;;9.60;;
21356;SDS011;10836;53.068;18.234;2022-12-29T02:24:00;17.90;;;9.57;;
21356;SDS011;10836;53.068;18.234;2022-12-29T02:37:28;14.03;;;7.50;;
21356;SDS011;10836;53.068;18.234;2022-12-29T02:40:48;15.20;;;8.33;;
21356;SDS011;10836;53.068;18.234;2022-12-29T02:43:11;22.47;;;9.23;;
21356;SDS011;10836;53.068;18.234;2022-12-29T02:54:27;16.27;;;8.67;;
21356;SDS011;10836;53.068;18.234;2022-12-29T02:57:31;13.87;;;7.50;;
21356;SDS011;10836;53.068;18.234;2022-12-29T03:00:09;19.03;;;7.83;;
21356;SDS011;10836;53.068;18.234;2022-12-29T03:08:19;12.97;;;6.93;;
21356;SDS011;10836;53.068;18.234;2022-12-29T03:11:01;14.03;;;7.60;;
21356;SDS011;10836;53.068;18.234;2022-12-29T03:16:27;13.97;;;7.13;;
21356;SDS011;10836;53.068;18.234;2022-12-29T03:21:50;14.53;;;7.30;;
21356;SDS011;10836;53.068;18.234;2022-12-29T03:25:02;11.93;;;6.10;;
21356;SDS011;10836;53.068;18.234;2022-12-29T03:27:35;13.80;;;7.13;;
21356;SDS011;10836;53.068;18.234;2022-12-29T03:30:07;17.53;;;7.60;;
21356;SDS011;10836;53.068;18.234;2022-12-29T03:32:38;14.47;;;7.03;;
21356;SDS011;10836;53.068;18.234;2022-12-29T03:35:13;15.90;;;7.47;;
21356;SDS011;10836;53.068;18.234;2022-12-29T03:37:55;19.10;;;8.07;;
21356;SDS011;10836;53.068;18.234;2022-12-29T03:40:27;17.07;;;8.30;;
21356;SDS011;10836;53.068;18.234;2022-12-29T03:42:57;14.20;;;7.40;;
21356;SDS011;10836;53.068;18.234;2022-12-29T03:45:26;14.63;;;7.40;;
21356;SDS011;10836;53.068;18.234;2022-12-29T03:47:54;15.23;;;7.93;;
21356;SDS011;10836;53.068;18.234;2022-12-29T03:50:21;13.80;;;7.40;;
21356;SDS011;10836;53.068;18.234;2022-12-29T03:52:47;16.07;;;7.97;;
21356;SDS011;10836;53.068;18.234;2022-12-29T03:55:15;14.67;;;7.33;;
21356;SDS011;10836;53.068;18.234;2022-12-29T03:57:44;19.50;;;8.37;;
21356;SDS011;10836;53.068;18.234;2022-12-29T04:00:16;14.27;;;7.73;;
21356;SDS011;10836;53.068;18.234;2022-12-29T04:02:47;15.07;;;7.60;;
21356;SDS011;10836;53.068;18.234;2022-12-29T04:05:20;15.00;;;7.77;;
21356;SDS011;10836;53.068;18.234;2022-12-29T04:07:49;14.53;;;7.73;;
21356;SDS011;10836;53.068;18.234;2022-12-29T04:10:17;18.63;;;7.43;;
21356;SDS011;10836;53.068;18.234;2022-12-29T04:12:45;14.00;;;7.30;;
21356;SDS011;10836;53.068;18.234;2022-12-29T04:15:13;17.57;;;7.67;;
21356;SDS011;10836;53.068;18.234;2022-12-29T04:17:40;12.30;;;6.73;;
21356;SDS011;10836;53.068;18.234;2022-12-29T04:20:08;11.77;;;6.50;;
21356;SDS011;10836;53.068;18.234;2022-12-29T04:23:00;10.53;;;6.23;;
21356;SDS011;10836;53.068;18.234;2022-12-29T04:25:32;14.53;;;7.23;;
21356;SDS011;10836;53.068;18.234;2022-12-29T04:28:01;15.90;;;6.90;;
21356;SDS011;10836;53.068;18.234;2022-12-29T04:30:43;14.33;;;7.17;;
21356;SDS011;10836;53.068;18.234;2022-12-29T04:33:19;14.90;;;7.17;;
21356;SDS011;10836;53.068;18.234;2022-12-29T04:35:47;14.90;;;6.27;;
21356;SDS011;10836;53.068;18.234;2022-12-29T04:38:15;18.97;;;7.50;;
21356;SDS011;10836;53.068;18.234;2022-12-29T04:40:44;13.20;;;7.07;;
21356;SDS011;10836;53.068;18.234;2022-12-29T04:43:13;15.17;;;6.90;;
21356;SDS011;10836;53.068;18.234;2022-12-29T04:46:05;12.97;;;7.00;;
21356;SDS011;10836;53.068;18.234;2022-12-29T04:48:46;13.43;;;6.03;;
21356;SDS011;10836;53.068;18.234;2022-12-29T04:51:29;11.83;;;5.90;;
21356;SDS011;10836;53.068;18.234;2022-12-29T04:53:56;15.30;;;7.10;;
21356;SDS011;10836;53.068;18.234;2022-12-29T04:56:24;14.13;;;6.43;;
21356;SDS011;10836;53.068;18.234;2022-12-29T04:58:51;12.77;;;6.57;;
21356;SDS011;10836;53.068;18.234;2022-12-29T05:01:20;12.10;;;6.00;;
21356;SDS011;10836;53.068;18.234;2022-12-29T05:03:49;10.83;;;5.63;;
21356;SDS011;10836;53.068;18.234;2022-12-29T05:06:18;11.90;;;6.53;;
21356;SDS011;10836;53.068;18.234;2022-12-29T05:08:45;11.27;;;6.17;;
21356;SDS011;10836;53.068;18.234;2022-12-29T05:11:12;14.27;;;6.20;;
21356;SDS011;10836;53.068;18.234;2022-12-29T05:13:40;13.00;;;5.83;;
21356;SDS011;10836;53.068;18.234;2022-12-29T05:16:07;11.13;;;5.97;;
21356;SDS011;10836;53.068;18.234;2022-12-29T05:18:34;9.63;;;5.83;;
21356;SDS011;10836;53.068;18.234;2022-12-29T05:21:02;10.80;;;5.77;;
21356;SDS011;10836;53.068;18.234;2022-12-29T05:23:30;13.40;;;6.13;;
21356;SDS011;10836;53.068;18.234;2022-12-29T05:26:04;14.00;;;6.30;;
21356;SDS011;10836;53.068;18.234;2022-12-29T05:28:50;10.27;;;5.17;;
21356;SDS011;10836;53.068;18.234;2022-12-29T05:31:18;12.47;;;6.03;;
21356;SDS011;10836;53.068;18.234;2022-12-29T05:33:47;10.50;;;4.97;;
21356;SDS011;10836;53.068;18.234;2022-12-29T05:36:14;11.17;;;5.30;;
21356;SDS011;10836;53.068;18.234;2022-12-29T05:38:45;10.10;;;5.07;;
21356;SDS011;10836;53.068;18.234;2022-12-29T05:41:13;9.97;;;4.73;;
21356;SDS011;10836;53.068;18.234;2022-12-29T05:43:58;13.33;;;5.50;;
21356;SDS011;10836;53.068;18.234;2022-12-29T05:46:44;13.17;;;5.90;;
21356;SDS011;10836;53.068;18.234;2022-12-29T05:49:32;11.03;;;4.77;;
21356;SDS011;10836;53.068;18.234;2022-12-29T05:52:18;13.20;;;4.87;;
21356;SDS011;10836;53.068;18.234;2022-12-29T05:54:45;8.70;;;5.00;;
21356;SDS011;10836;53.068;18.234;2022-12-29T05:57:16;9.70;;;4.70;;
21356;SDS011;10836;53.068;18.234;2022-12-29T05:59:49;7.20;;;4.57;;
21356;SDS011;10836;53.068;18.234;2022-12-29T06:02:16;10.23;;;4.90;;
21356;SDS011;10836;53.068;18.234;2022-12-29T06:04:43;10.07;;;4.60;;
21356;SDS011;10836;53.068;18.234;2022-12-29T06:07:10;10.70;;;4.83;;
21356;SDS011;10836;53.068;18.234;2022-12-29T06:09:42;10.70;;;4.70;;
21356;SDS011;10836;53.068;18.234;2022-12-29T06:12:10;7.57;;;4.27;;
21356;SDS011;10836;53.068;18.234;2022-12-29T06:14:39;12.53;;;4.93;;
21356;SDS011;10836;53.068;18.234;2022-12-29T06:17:11;8.80;;;4.13;;
21356;SDS011;10836;53.068;18.234;2022-12-29T06:19:38;7.87;;;4.23;;
21356;SDS011;10836;53.068;18.234;2022-12-29T06:22:06;8.93;;;4.27;;
21356;SDS011;10836;53.068;18.234;2022-12-29T06:24:35;9.23;;;3.70;;
21356;SDS011;10836;53.068;18.234;2022-12-29T06:27:03;9.60;;;4.33;;
21356;SDS011;10836;53.068;18.234;2022-12-29T06:29:30;7.93;;;4.50;;
21356;SDS011;10836;53.068;18.234;2022-12-29T06:31:58;10.97;;;4.53;;
21356;SDS011;10836;53.068;18.234;2022-12-29T06:34:26;7.53;;;4.20;;
21356;SDS011;10836;53.068;18.234;2022-12-29T06:36:53;7.30;;;4.43;;
21356;SDS011;10836;53.068;18.234;2022-12-29T06:39:20;7.67;;;4.00;;
21356;SDS011;10836;53.068;18.234;2022-12-29T06:41:59;10.23;;;4.30;;
21356;SDS011;10836;53.068;18.234;2022-12-29T06:44:43;9.03;;;4.10;;
21356;SDS011;10836;53.068;18.234;2022-12-29T06:47:10;7.17;;;4.00;;
21356;SDS011;10836;53.068;18.234;2022-12-29T06:49:37;10.33;;;4.20;;
21356;SDS011;10836;53.068;18.234;2022-12-29T06:52:05;9.17;;;4.23;;
21356;SDS011;10836;53.068;18.234;2022-12-29T06:54:38;11.53;;;4.70;;
21356;SDS011;10836;53.068;18.234;2022-12-29T06:57:05;8.40;;;4.00;;
21356;SDS011;10836;53.068;18.234;2022-12-29T06:59:32;8.43;;;3.50;;
21356;SDS011;10836;53.068;18.234;2022-12-29T07:01:59;8.60;;;3.83;;
21356;SDS011;10836;53.068;18.234;2022-12-29T07:04:28;10.17;;;3.97;;
21356;SDS011;10836;53.068;18.234;2022-12-29T07:06:56;7.83;;;4.07;;
21356;SDS011;10836;53.068;18.234;2022-12-29T07:09:22;8.00;;;3.80;;
21356;SDS011;10836;53.068;18.234;2022-12-29T07:11:49;7.70;;;3.67;;
21356;SDS011;10836;53.068;18.234;2022-12-29T07:14:17;6.60;;;3.37;;
21356;SDS011;10836;53.068;18.234;2022-12-29T07:16:44;8.33;;;4.00;;
21356;SDS011;10836;53.068;18.234;2022-12-29T07:19:11;7.43;;;3.43;;
21356;SDS011;10836;53.068;18.234;2022-12-29T07:21:38;7.70;;;3.60;;
21356;SDS011;10836;53.068;18.234;2022-12-29T07:24:12;8.37;;;3.33;;
21356;SDS011;10836;53.068;18.234;2022-12-29T07:26:39;7.30;;;3.67;;
21356;SDS011;10836;53.068;18.234;2022-12-29T07:29:07;8.63;;;3.63;;
21356;SDS011;10836;53.068;18.234;2022-12-29T07:31:34;6.67;;;3.53;;
21356;SDS011;10836;53.068;18.234;2022-12-29T07:34:01;7.67;;;3.53;;
21356;SDS011;10836;53.068;18.234;2022-12-29T07:36:28;11.53;;;4.07;;
21356;SDS011;10836;53.068;18.234;2022-12-29T07:39:00;8.23;;;3.83;;
21356;SDS011;10836;53.068;18.234;2022-12-29T07:41:27;6.10;;;3.27;;
21356;SDS011;10836;53.068;18.234;2022-12-29T07:43:54;9.23;;;3.70;;
21356;SDS011;10836;53.068;18.234;2022-12-29T07:46:34;7.50;;;3.50;;
21356;SDS011;10836;53.068;18.234;2022-12-29T07:49:21;7.80;;;2.90;;
21356;SDS011;10836;53.068;18.234;2022-12-29T07:51:48;7.40;;;3.50;;
21356;SDS011;10836;53.068;18.234;2022-12-29T07:54:15;9.83;;;3.70;;
21356;SDS011;10836;53.068;18.234;2022-12-29T07:56:45;8.97;;;3.57;;
21356;SDS011;10836;53.068;18.234;2022-12-29T07:59:12;7.13;;;3.30;;
21356;SDS011;10836;53.068;18.234;2022-12-29T08:01:39;8.77;;;3.20;;
21356;SDS011;10836;53.068;18.234;2022-12-29T08:04:06;7.40;;;3.63;;
21356;SDS011;10836;53.068;18.234;2022-12-29T08:06:34;6.50;;;3.43;;
21356;SDS011;10836;53.068;18.234;2022-12-29T08:09:00;8.13;;;3.33;;
21356;SDS011;10836;53.068;18.234;2022-12-29T08:11:38;7.80;;;3.37;;
21356;SDS011;10836;53.068;18.234;2022-12-29T08:14:05;8.20;;;3.63;;
21356;SDS011;10836;53.068;18.234;2022-12-29T08:16:32;8.47;;;3.30;;
21356;SDS011;10836;53.068;18.234;2022-12-29T08:18:59;8.20;;;3.27;;
21356;SDS011;10836;53.068;18.234;2022-12-29T08:21:29;8.27;;;3.63;;
21356;SDS011;10836;53.068;18.234;2022-12-29T08:23:56;6.73;;;3.30;;
21356;SDS011;10836;53.068;18.234;2022-12-29T08:26:24;12.70;;;4.70;;
21356;SDS011;10836;53.068;18.234;2022-12-29T08:28:54;8.23;;;3.17;;
21356;SDS011;10836;53.068;18.234;2022-12-29T08:31:22;8.30;;;3.60;;
21356;SDS011;10836;53.068;18.234;2022-12-29T08:33:50;7.33;;;3.40;;
21356;SDS011;10836;53.068;18.234;2022-12-29T08:36:17;7.23;;;3.00;;
21356;SDS011;10836;53.068;18.234;2022-12-29T08:38:44;7.77;;;3.53;;
21356;SDS011;10836;53.068;18.234;2022-12-29T08:41:11;9.63;;;3.87;;
21356;SDS011;10836;53.068;18.234;2022-12-29T08:43:38;8.23;;;3.67;;
21356;SDS011;10836;53.068;18.234;2022-12-29T08:46:05;14.13;;;4.57;;
21356;SDS011;10836;53.068;18.234;2022-12-29T08:48:32;7.57;;;3.30;;
21356;SDS011;10836;53.068;18.234;2022-12-29T08:50:59;9.23;;;3.73;;
21356;SDS011;10836;53.068;18.234;2022-12-29T08:53:26;7.60;;;3.73;;
21356;SDS011;10836;53.068;18.234;2022-12-29T08:55:55;11.03;;;4.20;;
21356;SDS011;10836;53.068;18.234;2022-12-29T08:58:36;10.37;;;3.53;;
21356;SDS011;10836;53.068;18.234;2022-12-29T09:01:03;8.80;;;4.17;;
21356;SDS011;10836;53.068;18.234;2022-12-29T09:03:31;11.27;;;5.27;;
21356;SDS011;10836;53.068;18.234;2022-12-29T09:06:19;10.60;;;3.60;;
21356;SDS011;10836;53.068;18.234;2022-12-29T09:08:46;9.67;;;3.97;;
21356;SDS011;10836;53.068;18.234;2022-12-29T09:11:22;9.10;;;4.40;;
21356;SDS011;10836;53.068;18.234;2022-12-29T09:13:51;9.83;;;4.53;;
21356;SDS011;10836;53.068;18.234;2022-12-29T09:16:20;10.60;;;4.53;;
21356;SDS011;10836;53.068;18.234;2022-12-29T09:18:48;8.63;;;4.00;;
21356;SDS011;10836;53.068;18.234;2022-12-29T09:21:15;14.93;;;4.70;;
21356;SDS011;10836;53.068;18.234;2022-12-29T09:23:42;8.57;;;4.07;;
21356;SDS011;10836;53.068;18.234;2022-12-29T09:26:09;10.57;;;4.90;;
21356;SDS011;10836;53.068;18.234;2022-12-29T09:28:36;8.90;;;3.60;;
21356;SDS011;10836;53.068;18.234;2022-12-29T09:31:04;10.47;;;5.20;;
21356;SDS011;10836;53.068;18.234;2022-12-29T09:33:31;10.83;;;4.33;;
21356;SDS011;10836;53.068;18.234;2022-12-29T09:36:00;11.37;;;4.93;;
21356;SDS011;10836;53.068;18.234;2022-12-29T09:38:27;9.90;;;4.27;;
21356;SDS011;10836;53.068;18.234;2022-12-29T09:40:56;10.00;;;4.53;;
21356;SDS011;10836;53.068;18.234;2022-12-29T09:46:34;9.23;;;4.30;;
21356;SDS011;10836;53.068;18.234;2022-12-29T09:51:43;10.00;;;4.30;;
21356;SDS011;10836;53.068;18.234;2022-12-29T09:54:21;8.20;;;4.00;;
21356;SDS011;10836;53.068;18.234;2022-12-29T09:56:55;9.73;;;4.60;;
21356;SDS011;10836;53.068;18.234;2022-12-29T09:59:41;11.00;;;4.30;;
21356;SDS011;10836;53.068;18.234;2022-12-29T10:02:31;9.73;;;4.37;;
21356;SDS011;10836;53.068;18.234;2022-12-29T10:05:03;9.90;;;4.00;;
21356;SDS011;10836;53.068;18.234;2022-12-29T10:07:42;7.83;;;3.97;;
21356;SDS011;10836;53.068;18.234;2022-12-29T10:13:21;13.57;;;4.00;;
21356;SDS011;10836;53.068;18.234;2022-12-29T10:16:01;8.07;;;4.00;;
21356;SDS011;10836;53.068;18.234;2022-12-29T10:23:54;7.53;;;3.87;;
21356;SDS011;10836;53.068;18.234;2022-12-29T10:26:33;8.50;;;3.70;;
21356;SDS011;10836;53.068;18.234;2022-12-29T10:29:16;13.83;;;4.77;;
21356;SDS011;10836;53.068;18.234;2022-12-29T10:31:50;9.63;;;4.17;;
21356;SDS011;10836;53.068;18.234;2022-12-29T10:34:26;9.10;;;3.83;;
21356;SDS011;10836;53.068;18.234;2022-12-29T10:37:04;7.73;;;3.53;;
21356;SDS011;10836;53.068;18.234;2022-12-29T10:39:40;9.20;;;3.50;;
21356;SDS011;10836;53.068;18.234;2022-12-29T10:42:17;8.10;;;3.43;;
21356;SDS011;10836;53.068;18.234;2022-12-29T10:44:51;8.40;;;3.50;;
21356;SDS011;10836;53.068;18.234;2022-12-29T10:47:24;10.37;;;4.50;;
21356;SDS011;10836;53.068;18.234;2022-12-29T10:49:53;9.03;;;4.13;;
21356;SDS011;10836;53.068;18.234;2022-12-29T10:52:20;8.37;;;3.37;;
21356;SDS011;10836;53.068;18.234;2022-12-29T11:00:08;9.10;;;3.93;;
21356;SDS011;10836;53.068;18.234;2022-12-29T11:06:00;9.33;;;3.17;;
21356;SDS011;10836;53.068;18.234;2022-12-29T11:08:36;9.10;;;4.30;;
21356;SDS011;10836;53.068;18.234;2022-12-29T11:11:07;9.30;;;3.67;;
21356;SDS011;10836;53.068;18.234;2022-12-29T11:13:46;12.83;;;4.40;;
21356;SDS011;10836;53.068;18.234;2022-12-29T11:16:15;9.60;;;4.37;;
21356;SDS011;10836;53.068;18.234;2022-12-29T11:18:54;9.73;;;3.67;;
21356;SDS011;10836;53.068;18.234;2022-12-29T11:24:18;9.43;;;4.23;;
21356;SDS011;10836;53.068;18.234;2022-12-29T11:26:51;10.33;;;4.40;;
21356;SDS011;10836;53.068;18.234;2022-12-29T11:29:38;11.13;;;4.53;;
21356;SDS011;10836;53.068;18.234;2022-12-29T11:32:17;12.07;;;4.27;;
21356;SDS011;10836;53.068;18.234;2022-12-29T11:34:54;9.37;;;4.53;;
21356;SDS011;10836;53.068;18.234;2022-12-29T11:37:27;8.97;;;3.73;;
21356;SDS011;10836;53.068;18.234;2022-12-29T11:39:57;13.70;;;4.67;;
21356;SDS011;10836;53.068;18.234;2022-12-29T11:42:46;7.97;;;3.83;;
21356;SDS011;10836;53.068;18.234;2022-12-29T11:45:18;7.43;;;3.73;;
21356;SDS011;10836;53.068;18.234;2022-12-29T11:47:49;10.73;;;4.53;;
21356;SDS011;10836;53.068;18.234;2022-12-29T11:50:23;8.60;;;3.90;;
21356;SDS011;10836;53.068;18.234;2022-12-29T11:53:03;10.60;;;4.13;;
21356;SDS011;10836;53.068;18.234;2022-12-29T11:55:40;9.33;;;4.20;;
21356;SDS011;10836;53.068;18.234;2022-12-29T11:58:18;10.90;;;4.50;;
21356;SDS011;10836;53.068;18.234;2022-12-29T12:00:45;9.17;;;3.80;;
21356;SDS011;10836;53.068;18.234;2022-12-29T12:03:21;8.33;;;4.40;;
21356;SDS011;10836;53.068;18.234;2022-12-29T12:05:55;7.50;;;3.70;;
21356;SDS011;10836;53.068;18.234;2022-12-29T12:16:56;8.47;;;3.80;;
21356;SDS011;10836;53.068;18.234;2022-12-29T12:19:32;8.40;;;3.30;;
21356;SDS011;10836;53.068;18.234;2022-12-29T12:22:13;7.03;;;3.57;;
21356;SDS011;10836;53.068;18.234;2022-12-29T12:25:03;6.20;;;3.23;;
21356;SDS011;10836;53.068;18.234;2022-12-29T12:27:41;9.70;;;3.57;;
21356;SDS011;10836;53.068;18.234;2022-12-29T12:30:16;8.10;;;3.23;;
21356;SDS011;10836;53.068;18.234;2022-12-29T12:38:38;6.73;;;3.33;;
21356;SDS011;10836;53.068;18.234;2022-12-29T12:44:09;7.40;;;3.70;;
21356;SDS011;10836;53.068;18.234;2022-12-29T13:00:41;8.90;;;3.43;;
21356;SDS011;10836;53.068;18.234;2022-12-29T13:03:43;7.97;;;3.47;;
21356;SDS011;10836;53.068;18.234;2022-12-29T13:09:45;7.27;;;3.27;;
21356;SDS011;10836;53.068;18.234;2022-12-29T13:15:11;7.17;;;2.80;;
21356;SDS011;10836;53.068;18.234;2022-12-29T13:17:44;11.03;;;3.07;;
21356;SDS011;10836;53.068;18.234;2022-12-29T13:20:24;6.57;;;3.30;;
21356;SDS011;10836;53.068;18.234;2022-12-29T13:31:18;8.77;;;3.13;;
21356;SDS011;10836;53.068;18.234;2022-12-29T13:34:05;6.07;;;2.93;;
21356;SDS011;10836;53.068;18.234;2022-12-29T13:36:42;7.03;;;3.20;;
21356;SDS011;10836;53.068;18.234;2022-12-29T13:41:51;8.73;;;3.50;;
21356;SDS011;10836;53.068;18.234;2022-12-29T13:44:54;6.30;;;3.23;;
21356;SDS011;10836;53.068;18.234;2022-12-29T13:47:35;8.13;;;3.37;;
21356;SDS011;10836;53.068;18.234;2022-12-29T13:50:10;7.13;;;3.20;;
21356;SDS011;10836;53.068;18.234;2022-12-29T13:56:11;8.10;;;3.17;;
21356;SDS011;10836;53.068;18.234;2022-12-29T14:04:27;9.40;;;3.37;;
21356;SDS011;10836;53.068;18.234;2022-12-29T14:07:02;6.10;;;2.77;;
21356;SDS011;10836;53.068;18.234;2022-12-29T14:12:01;9.57;;;3.30;;
21356;SDS011;10836;53.068;18.234;2022-12-29T14:14:33;6.30;;;3.17;;
21356;SDS011;10836;53.068;18.234;2022-12-29T14:17:10;6.97;;;3.20;;
21356;SDS011;10836;53.068;18.234;2022-12-29T14:19:42;7.53;;;3.03;;
21356;SDS011;10836;53.068;18.234;2022-12-29T14:22:11;7.50;;;3.23;;
21356;SDS011;10836;53.068;18.234;2022-12-29T14:24:41;6.57;;;3.00;;
21356;SDS011;10836;53.068;18.234;2022-12-29T14:34:56;6.53;;;2.70;;
21356;SDS011;10836;53.068;18.234;2022-12-29T14:37:26;7.77;;;2.70;;
21356;SDS011;10836;53.068;18.234;2022-12-29T14:42:45;6.07;;;2.77;;
21356;SDS011;10836;53.068;18.234;2022-12-29T14:47:41;6.13;;;3.10;;
21356;SDS011;10836;53.068;18.234;2022-12-29T14:53:00;6.27;;;2.93;;
21356;SDS011;10836;53.068;18.234;2022-12-29T14:55:40;6.83;;;2.90;;
21356;SDS011;10836;53.068;18.234;2022-12-29T14:58:29;7.93;;;3.07;;
21356;SDS011;10836;53.068;18.234;2022-12-29T15:00:59;8.63;;;3.37;;
21356;SDS011;10836;53.068;18.234;2022-12-29T15:03:36;6.80;;;2.80;;
21356;SDS011;10836;53.068;18.234;2022-12-29T15:06:11;7.83;;;2.83;;
21356;SDS011;10836;53.068;18.234;2022-12-29T15:08:47;7.30;;;2.90;;
21356;SDS011;10836;53.068;18.234;2022-12-29T15:11:19;7.90;;;3.30;;
21356;SDS011;10836;53.068;18.234;2022-12-29T15:13:53;6.97;;;2.83;;
21356;SDS011;10836;53.068;18.234;2022-12-29T15:16:24;9.77;;;3.30;;
21356;SDS011;10836;53.068;18.234;2022-12-29T15:18:59;7.33;;;3.47;;
21356;SDS011;10836;53.068;18.234;2022-12-29T15:21:28;13.40;;;3.50;;
21356;SDS011;10836;53.068;18.234;2022-12-29T15:23:57;8.20;;;3.63;;
21356;SDS011;10836;53.068;18.234;2022-12-29T15:26:35;14.70;;;6.50;;
21356;SDS011;10836;53.068;18.234;2022-12-29T15:29:04;11.13;;;3.70;;
21356;SDS011;10836;53.068;18.234;2022-12-29T15:31:31;17.50;;;7.57;;
21356;SDS011;10836;53.068;18.234;2022-12-29T15:34:07;9.67;;;3.90;;
21356;SDS011;10836;53.068;18.234;2022-12-29T15:36:38;9.63;;;3.73;;
21356;SDS011;10836;53.068;18.234;2022-12-29T15:39:19;10.93;;;3.80;;
21356;SDS011;10836;53.068;18.234;2022-12-29T15:41:56;10.57;;;4.23;;
21356;SDS011;10836;53.068;18.234;2022-12-29T15:44:37;12.77;;;5.03;;
21356;SDS011;10836;53.068;18.234;2022-12-29T15:47:14;10.43;;;4.70;;
21356;SDS011;10836;53.068;18.234;2022-12-29T15:49:47;13.63;;;6.37;;
21356;SDS011;10836;53.068;18.234;2022-12-29T15:52:35;9.80;;;4.40;;
21356;SDS011;10836;53.068;18.234;2022-12-29T15:55:05;11.00;;;4.77;;
21356;SDS011;10836;53.068;18.234;2022-12-29T15:57:43;11.67;;;5.43;;
21356;SDS011;10836;53.068;18.234;2022-12-29T16:00:23;12.57;;;6.27;;
21356;SDS011;10836;53.068;18.234;2022-12-29T16:02:53;15.13;;;6.97;;
21356;SDS011;10836;53.068;18.234;2022-12-29T16:05:22;19.90;;;7.97;;
21356;SDS011;10836;53.068;18.234;2022-12-29T16:07:57;17.77;;;7.37;;
21356;SDS011;10836;53.068;18.234;2022-12-29T16:10:32;14.43;;;6.53;;
21356;SDS011;10836;53.068;18.234;2022-12-29T16:13:47;16.63;;;7.60;;
21356;SDS011;10836;53.068;18.234;2022-12-29T16:16:12;18.23;;;9.40;;
21356;SDS011;10836;53.068;18.234;2022-12-29T16:18:45;17.97;;;9.17;;
21356;SDS011;10836;53.068;18.234;2022-12-29T16:21:28;26.07;;;11.37;;
21356;SDS011;10836;53.068;18.234;2022-12-29T16:24:01;26.13;;;13.30;;
21356;SDS011;10836;53.068;18.234;2022-12-29T16:26:33;33.43;;;16.13;;
21356;SDS011;10836;53.068;18.234;2022-12-29T16:29:01;25.27;;;11.17;;
21356;SDS011;10836;53.068;18.234;2022-12-29T16:31:35;15.77;;;7.57;;
21356;SDS011;10836;53.068;18.234;2022-12-29T16:34:24;21.87;;;10.43;;
21356;SDS011;10836;53.068;18.234;2022-12-29T16:37:05;17.90;;;7.23;;
21356;SDS011;10836;53.068;18.234;2022-12-29T16:39:55;14.50;;;7.23;;
21356;SDS011;10836;53.068;18.234;2022-12-29T16:50:35;18.10;;;7.50;;
21356;SDS011;10836;53.068;18.234;2022-12-29T16:53:05;16.93;;;6.70;;
21356;SDS011;10836;53.068;18.234;2022-12-29T16:55:46;16.07;;;7.00;;
21356;SDS011;10836;53.068;18.234;2022-12-29T16:58:18;13.87;;;6.40;;
21356;SDS011;10836;53.068;18.234;2022-12-29T17:00:49;14.70;;;6.67;;
21356;SDS011;10836;53.068;18.234;2022-12-29T17:03:16;17.17;;;7.77;;
21356;SDS011;10836;53.068;18.234;2022-12-29T17:05:43;18.37;;;7.80;;
21356;SDS011;10836;53.068;18.234;2022-12-29T17:08:20;15.13;;;7.23;;
21356;SDS011;10836;53.068;18.234;2022-12-29T17:10:51;18.60;;;7.03;;
21356;SDS011;10836;53.068;18.234;2022-12-29T17:13:39;21.03;;;10.33;;
21356;SDS011;10836;53.068;18.234;2022-12-29T17:16:07;15.33;;;6.07;;
21356;SDS011;10836;53.068;18.234;2022-12-29T17:18:37;16.27;;;7.90;;
21356;SDS011;10836;53.068;18.234;2022-12-29T17:21:04;13.40;;;6.60;;
21356;SDS011;10836;53.068;18.234;2022-12-29T17:23:33;15.00;;;5.97;;
21356;SDS011;10836;53.068;18.234;2022-12-29T17:26:01;22.80;;;9.00;;
21356;SDS011;10836;53.068;18.234;2022-12-29T17:28:29;18.93;;;7.60;;